sensor_id;sensor_type;location;lat;lon;timestamp;temperature;humidity
30678;DHT22;17437;47.188;8.896;2023-04-03T00:01:59;8.00;99.90
30678;DHT22;17437;47.188;8.896;2023-04-03T00:04:31;8.00;99.90
30678;DHT22;17437;47.188;8.896;2023-04-03T00:07:03;8.10;99.90
30678;DHT22;17437;47.188;8.896;2023-04-03T00:09:34;8.10;99.90
30678;DHT22;17437;47.188;8.896;2023-04-03T00:12:06;8.10;99.90
30678;DHT22;17437;47.188;8.896;2023-04-03T00:14:37;8.10;99.90
30678;DHT22;17437;47.188;8.896;2023-04-03T00:17:09;8.00;99.90
30678;DHT22;17437;47.188;8.896;2023-04-03T00:19:40;8.00;99.90
30678;DHT22;17437;47.188;8.896;2023-04-03T00:22:12;8.00;99.90
30678;DHT22;17437;47.188;8.896;2023-04-03T00:24:43;7.90;99.90
30678;DHT22;17437;47.188;8.896;2023-04-03T00:27:15;7.90;99.90
30678;DHT22;17437;47.188;8.896;2023-04-03T00:29:46;7.90;99.90
30678;DHT22;17437;47.188;8.896;2023-04-03T00:32:18;7.90;99.90
30678;DHT22;17437;47.188;8.896;2023-04-03T00:34:50;7.90;99.90
30678;DHT22;17437;47.188;8.896;2023-04-03T00:37:21;7.90;99.90
30678;DHT22;17437;47.188;8.896;2023-04-03T00:39:53;7.90;99.90
30678;DHT22;17437;47.188;8.896;2023-04-03T00:42:25;7.80;99.90
30678;DHT22;17437;47.188;8.896;2023-04-03T00:45:30;7.80;99.90
30678;DHT22;17437;47.188;8.896;2023-04-03T00:48:01;7.70;99.90
30678;DHT22;17437;47.188;8.896;2023-04-03T00:50:37;7.60;99.90
30678;DHT22;17437;47.188;8.896;2023-04-03T00:53:12;7.40;99.90
30678;DHT22;17437;47.188;8.896;2023-04-03T00:55:45;7.30;99.90
30678;DHT22;17437;47.188;8.896;2023-04-03T00:58:19;7.20;99.90
30678;DHT22;17437;47.188;8.896;2023-04-03T01:00:54;7.20;99.90
30678;DHT22;17437;47.188;8.896;2023-04-03T01:03:27;7.10;99.90
30678;DHT22;17437;47.188;8.896;2023-04-03T01:06:01;7.10;99.90
30678;DHT22;17437;47.188;8.896;2023-04-03T01:08:33;7.00;99.90
30678;DHT22;17437;47.188;8.896;2023-04-03T01:11:05;7.00;99.90
30678;DHT22;17437;47.188;8.896;2023-04-03T01:13:37;7.00;99.90
30678;DHT22;17437;47.188;8.896;2023-04-03T01:16:08;7.00;99.90
30678;DHT22;17437;47.188;8.896;2023-04-03T01:18:41;6.90;99.90
30678;DHT22;17437;47.188;8.896;2023-04-03T01:21:39;6.90;99.90
30678;DHT22;17437;47.188;8.896;2023-04-03T01:24:23;6.80;99.90
30678;DHT22;17437;47.188;8.896;2023-04-03T01:26:55;6.90;99.90
30678;DHT22;17437;47.188;8.896;2023-04-03T01:29:27;6.90;99.90
30678;DHT22;17437;47.188;8.896;2023-04-03T01:31:59;6.80;99.90
30678;DHT22;17437;47.188;8.896;2023-04-03T01:34:32;6.80;99.90
30678;DHT22;17437;47.188;8.896;2023-04-03T01:37:04;6.80;99.90
30678;DHT22;17437;47.188;8.896;2023-04-03T01:39:35;6.70;99.90
30678;DHT22;17437;47.188;8.896;2023-04-03T01:42:07;6.70;99.90
30678;DHT22;17437;47.188;8.896;2023-04-03T01:44:38;6.70;99.90
30678;DHT22;17437;47.188;8.896;2023-04-03T01:47:10;6.70;99.90
30678;DHT22;17437;47.188;8.896;2023-04-03T01:49:41;6.70;99.90
30678;DHT22;17437;47.188;8.896;2023-04-03T01:52:13;6.80;99.90
30678;DHT22;17437;47.188;8.896;2023-04-03T01:54:45;6.80;99.90
30678;DHT22;17437;47.188;8.896;2023-04-03T01:57:16;6.70;99.90
30678;DHT22;17437;47.188;8.896;2023-04-03T01:59:48;6.70;99.90
30678;DHT22;17437;47.188;8.896;2023-04-03T02:02:19;6.80;99.90
30678;DHT22;17437;47.188;8.896;2023-04-03T02:04:51;6.80;99.90
30678;DHT22;17437;47.188;8.896;2023-04-03T02:07:22;6.80;99.90
30678;DHT22;17437;47.188;8.896;2023-04-03T02:09:54;6.70;99.90
30678;DHT22;17437;47.188;8.896;2023-04-03T02:12:25;6.70;99.90
30678;DHT22;17437;47.188;8.896;2023-04-03T02:14:57;6.70;99.90
30678;DHT22;17437;47.188;8.896;2023-04-03T02:17:28;6.70;99.90
30678;DHT22;17437;47.188;8.896;2023-04-03T02:20:00;6.60;99.90
30678;DHT22;17437;47.188;8.896;2023-04-03T02:22:32;6.60;99.90
30678;DHT22;17437;47.188;8.896;2023-04-03T02:25:04;6.60;99.90
30678;DHT22;17437;47.188;8.896;2023-04-03T02:27:36;6.60;99.90
30678;DHT22;17437;47.188;8.896;2023-04-03T02:30:08;6.60;99.90
30678;DHT22;17437;47.188;8.896;2023-04-03T02:32:41;6.60;99.90
30678;DHT22;17437;47.188;8.896;2023-04-03T02:35:12;6.60;99.90
30678;DHT22;17437;47.188;8.896;2023-04-03T02:37:44;6.50;99.90
30678;DHT22;17437;47.188;8.896;2023-04-03T02:40:16;6.50;99.90
30678;DHT22;17437;47.188;8.896;2023-04-03T02:42:47;6.40;99.90
30678;DHT22;17437;47.188;8.896;2023-04-03T02:45:19;6.50;99.90
30678;DHT22;17437;47.188;8.896;2023-04-03T02:47:50;6.50;99.90
30678;DHT22;17437;47.188;8.896;2023-04-03T02:50:22;6.60;99.90
30678;DHT22;17437;47.188;8.896;2023-04-03T02:52:54;6.60;99.90
30678;DHT22;17437;47.188;8.896;2023-04-03T02:55:25;6.50;99.90
30678;DHT22;17437;47.188;8.896;2023-04-03T02:57:57;6.40;99.90
30678;DHT22;17437;47.188;8.896;2023-04-03T03:00:28;6.30;99.90
30678;DHT22;17437;47.188;8.896;2023-04-03T03:03:00;6.20;99.90
30678;DHT22;17437;47.188;8.896;2023-04-03T03:05:32;6.10;99.90
30678;DHT22;17437;47.188;8.896;2023-04-03T03:08:03;6.00;99.90
30678;DHT22;17437;47.188;8.896;2023-04-03T03:10:35;6.00;99.90
30678;DHT22;17437;47.188;8.896;2023-04-03T03:13:07;6.00;99.90
30678;DHT22;17437;47.188;8.896;2023-04-03T03:15:38;6.00;99.90
30678;DHT22;17437;47.188;8.896;2023-04-03T03:18:10;5.90;99.90
30678;DHT22;17437;47.188;8.896;2023-04-03T03:20:41;5.90;99.90
30678;DHT22;17437;47.188;8.896;2023-04-03T03:23:13;5.90;99.90
30678;DHT22;17437;47.188;8.896;2023-04-03T03:25:44;5.90;99.90
30678;DHT22;17437;47.188;8.896;2023-04-03T03:28:16;5.90;99.90
30678;DHT22;17437;47.188;8.896;2023-04-03T03:30:47;5.90;99.90
30678;DHT22;17437;47.188;8.896;2023-04-03T03:33:19;5.90;99.90
30678;DHT22;17437;47.188;8.896;2023-04-03T03:35:51;5.90;99.90
30678;DHT22;17437;47.188;8.896;2023-04-03T03:38:23;6.00;99.90
30678;DHT22;17437;47.188;8.896;2023-04-03T03:40:55;6.00;99.90
30678;DHT22;17437;47.188;8.896;2023-04-03T03:43:27;5.90;99.90
30678;DHT22;17437;47.188;8.896;2023-04-03T03:45:58;5.80;99.90
30678;DHT22;17437;47.188;8.896;2023-04-03T03:48:30;5.80;99.90
30678;DHT22;17437;47.188;8.896;2023-04-03T03:51:01;5.70;99.90
30678;DHT22;17437;47.188;8.896;2023-04-03T03:53:33;5.70;99.90
30678;DHT22;17437;47.188;8.896;2023-04-03T03:56:05;5.70;99.90
30678;DHT22;17437;47.188;8.896;2023-04-03T03:58:37;5.70;99.90
30678;DHT22;17437;47.188;8.896;2023-04-03T04:01:09;5.60;99.90
30678;DHT22;17437;47.188;8.896;2023-04-03T04:03:40;5.70;99.90
30678;DHT22;17437;47.188;8.896;2023-04-03T04:06:12;5.70;99.90
30678;DHT22;17437;47.188;8.896;2023-04-03T04:08:44;5.70;99.90
30678;DHT22;17437;47.188;8.896;2023-04-03T04:11:15;5.70;99.90
30678;DHT22;17437;47.188;8.896;2023-04-03T04:13:47;5.80;99.90
30678;DHT22;17437;47.188;8.896;2023-04-03T04:16:18;5.80;99.90
30678;DHT22;17437;47.188;8.896;2023-04-03T04:18:50;5.80;99.90
30678;DHT22;17437;47.188;8.896;2023-04-03T04:21:22;5.80;99.90
30678;DHT22;17437;47.188;8.896;2023-04-03T04:23:53;5.80;99.90
30678;DHT22;17437;47.188;8.896;2023-04-03T04:26:25;5.80;99.90
30678;DHT22;17437;47.188;8.896;2023-04-03T04:28:56;5.70;99.90
30678;DHT22;17437;47.188;8.896;2023-04-03T04:31:28;5.70;99.90
30678;DHT22;17437;47.188;8.896;2023-04-03T04:34:00;5.60;99.90
30678;DHT22;17437;47.188;8.896;2023-04-03T04:36:31;5.60;99.90
30678;DHT22;17437;47.188;8.896;2023-04-03T04:39:03;5.60;99.90
30678;DHT22;17437;47.188;8.896;2023-04-03T04:41:35;5.50;99.90
30678;DHT22;17437;47.188;8.896;2023-04-03T04:44:07;5.50;99.90
30678;DHT22;17437;47.188;8.896;2023-04-03T04:49:22;5.40;99.90
30678;DHT22;17437;47.188;8.896;2023-04-03T04:51:53;5.30;99.90
30678;DHT22;17437;47.188;8.896;2023-04-03T04:54:25;5.30;99.90
30678;DHT22;17437;47.188;8.896;2023-04-03T04:56:56;5.30;99.90
30678;DHT22;17437;47.188;8.896;2023-04-03T04:59:28;5.20;99.90
30678;DHT22;17437;47.188;8.896;2023-04-03T05:02:00;5.20;99.90
30678;DHT22;17437;47.188;8.896;2023-04-03T05:04:31;5.20;99.90
30678;DHT22;17437;47.188;8.896;2023-04-03T05:07:03;5.10;99.90
30678;DHT22;17437;47.188;8.896;2023-04-03T05:09:35;5.10;99.90
30678;DHT22;17437;47.188;8.896;2023-04-03T05:12:07;5.10;99.90
30678;DHT22;17437;47.188;8.896;2023-04-03T05:14:38;5.10;99.90
30678;DHT22;17437;47.188;8.896;2023-04-03T05:17:10;5.00;99.90
30678;DHT22;17437;47.188;8.896;2023-04-03T05:19:41;5.00;99.90
30678;DHT22;17437;47.188;8.896;2023-04-03T05:22:13;5.00;99.90
30678;DHT22;17437;47.188;8.896;2023-04-03T05:24:45;5.10;99.90
30678;DHT22;17437;47.188;8.896;2023-04-03T05:27:17;5.10;99.90
30678;DHT22;17437;47.188;8.896;2023-04-03T05:29:49;5.10;99.90
30678;DHT22;17437;47.188;8.896;2023-04-03T05:32:21;5.10;99.90
30678;DHT22;17437;47.188;8.896;2023-04-03T05:34:53;5.20;99.90
30678;DHT22;17437;47.188;8.896;2023-04-03T05:37:25;5.10;99.90
30678;DHT22;17437;47.188;8.896;2023-04-03T05:39:56;5.20;99.90
30678;DHT22;17437;47.188;8.896;2023-04-03T05:42:28;5.20;99.90
30678;DHT22;17437;47.188;8.896;2023-04-03T05:44:59;5.30;99.90
30678;DHT22;17437;47.188;8.896;2023-04-03T05:47:31;5.30;99.90
30678;DHT22;17437;47.188;8.896;2023-04-03T05:50:03;5.30;99.90
30678;DHT22;17437;47.188;8.896;2023-04-03T05:52:37;5.30;99.90
30678;DHT22;17437;47.188;8.896;2023-04-03T05:55:09;5.30;99.90
30678;DHT22;17437;47.188;8.896;2023-04-03T05:57:41;5.30;99.90
30678;DHT22;17437;47.188;8.896;2023-04-03T06:00:14;5.30;99.90
30678;DHT22;17437;47.188;8.896;2023-04-03T06:02:46;5.30;99.90
30678;DHT22;17437;47.188;8.896;2023-04-03T06:05:18;5.30;99.90
30678;DHT22;17437;47.188;8.896;2023-04-03T06:07:49;5.40;99.90
30678;DHT22;17437;47.188;8.896;2023-04-03T06:10:21;5.30;99.90
30678;DHT22;17437;47.188;8.896;2023-04-03T06:12:53;5.30;99.90
30678;DHT22;17437;47.188;8.896;2023-04-03T06:15:25;5.30;99.90
30678;DHT22;17437;47.188;8.896;2023-04-03T06:17:56;5.30;99.90
30678;DHT22;17437;47.188;8.896;2023-04-03T06:20:31;5.30;99.90
30678;DHT22;17437;47.188;8.896;2023-04-03T06:23:02;5.30;99.90
30678;DHT22;17437;47.188;8.896;2023-04-03T06:25:36;5.30;99.90
30678;DHT22;17437;47.188;8.896;2023-04-03T06:28:09;5.40;99.90
30678;DHT22;17437;47.188;8.896;2023-04-03T06:30:40;5.60;99.90
30678;DHT22;17437;47.188;8.896;2023-04-03T06:33:12;5.60;99.90
30678;DHT22;17437;47.188;8.896;2023-04-03T06:36:04;5.60;99.90
30678;DHT22;17437;47.188;8.896;2023-04-03T06:38:36;5.60;99.90
30678;DHT22;17437;47.188;8.896;2023-04-03T06:41:08;5.60;99.90
30678;DHT22;17437;47.188;8.896;2023-04-03T06:43:40;5.50;99.90
30678;DHT22;17437;47.188;8.896;2023-04-03T06:46:15;5.50;99.90
30678;DHT22;17437;47.188;8.896;2023-04-03T06:48:48;5.50;99.90
30678;DHT22;17437;47.188;8.896;2023-04-03T06:51:21;5.40;99.90
30678;DHT22;17437;47.188;8.896;2023-04-03T06:53:54;5.40;99.90
30678;DHT22;17437;47.188;8.896;2023-04-03T06:56:27;5.40;99.90
30678;DHT22;17437;47.188;8.896;2023-04-03T06:58:59;5.40;99.90
30678;DHT22;17437;47.188;8.896;2023-04-03T07:01:32;5.40;99.90
30678;DHT22;17437;47.188;8.896;2023-04-03T07:04:04;5.50;99.90
30678;DHT22;17437;47.188;8.896;2023-04-03T07:06:36;5.60;99.90
30678;DHT22;17437;47.188;8.896;2023-04-03T07:09:15;5.60;99.90
30678;DHT22;17437;47.188;8.896;2023-04-03T07:11:46;5.70;99.90
30678;DHT22;17437;47.188;8.896;2023-04-03T07:14:18;5.80;99.90
30678;DHT22;17437;47.188;8.896;2023-04-03T07:16:51;5.80;99.90
30678;DHT22;17437;47.188;8.896;2023-04-03T07:19:22;5.80;99.90
30678;DHT22;17437;47.188;8.896;2023-04-03T07:21:56;5.80;99.90
30678;DHT22;17437;47.188;8.896;2023-04-03T07:24:27;5.80;99.90
30678;DHT22;17437;47.188;8.896;2023-04-03T07:26:59;5.80;99.90
30678;DHT22;17437;47.188;8.896;2023-04-03T07:29:31;5.80;99.90
30678;DHT22;17437;47.188;8.896;2023-04-03T07:32:03;5.80;99.90
30678;DHT22;17437;47.188;8.896;2023-04-03T07:34:35;5.80;99.90
30678;DHT22;17437;47.188;8.896;2023-04-03T07:37:07;6.00;99.90
30678;DHT22;17437;47.188;8.896;2023-04-03T07:39:40;6.10;99.90
30678;DHT22;17437;47.188;8.896;2023-04-03T07:42:13;6.20;99.90
30678;DHT22;17437;47.188;8.896;2023-04-03T07:44:46;6.30;99.90
30678;DHT22;17437;47.188;8.896;2023-04-03T07:47:17;6.40;99.90
30678;DHT22;17437;47.188;8.896;2023-04-03T07:49:50;6.60;99.90
30678;DHT22;17437;47.188;8.896;2023-04-03T07:52:22;6.70;99.90
30678;DHT22;17437;47.188;8.896;2023-04-03T07:54:53;6.80;99.90
30678;DHT22;17437;47.188;8.896;2023-04-03T07:57:25;7.00;99.90
30678;DHT22;17437;47.188;8.896;2023-04-03T07:59:56;6.90;99.90
30678;DHT22;17437;47.188;8.896;2023-04-03T08:02:28;6.80;99.90
30678;DHT22;17437;47.188;8.896;2023-04-03T08:05:01;6.70;99.90
30678;DHT22;17437;47.188;8.896;2023-04-03T08:07:33;6.70;99.90
30678;DHT22;17437;47.188;8.896;2023-04-03T08:10:06;6.80;99.90
30678;DHT22;17437;47.188;8.896;2023-04-03T08:12:38;6.70;99.90
30678;DHT22;17437;47.188;8.896;2023-04-03T08:15:10;6.60;99.90
30678;DHT22;17437;47.188;8.896;2023-04-03T08:17:42;6.60;99.90
30678;DHT22;17437;47.188;8.896;2023-04-03T08:20:13;6.50;99.90
30678;DHT22;17437;47.188;8.896;2023-04-03T08:22:45;6.40;99.90
30678;DHT22;17437;47.188;8.896;2023-04-03T08:25:17;6.30;99.90
30678;DHT22;17437;47.188;8.896;2023-04-03T08:27:48;6.50;99.90
30678;DHT22;17437;47.188;8.896;2023-04-03T08:30:20;6.70;99.90
30678;DHT22;17437;47.188;8.896;2023-04-03T08:32:52;6.70;99.90
30678;DHT22;17437;47.188;8.896;2023-04-03T08:35:23;6.80;99.90
30678;DHT22;17437;47.188;8.896;2023-04-03T08:37:55;6.70;99.90
30678;DHT22;17437;47.188;8.896;2023-04-03T08:40:26;6.80;99.90
30678;DHT22;17437;47.188;8.896;2023-04-03T08:43:05;7.10;99.90
30678;DHT22;17437;47.188;8.896;2023-04-03T08:45:43;7.00;99.90
30678;DHT22;17437;47.188;8.896;2023-04-03T08:48:19;7.10;99.90
30678;DHT22;17437;47.188;8.896;2023-04-03T08:50:54;7.10;99.90
30678;DHT22;17437;47.188;8.896;2023-04-03T08:53:28;7.20;99.90
30678;DHT22;17437;47.188;8.896;2023-04-03T08:56:04;7.30;99.90
30678;DHT22;17437;47.188;8.896;2023-04-03T08:58:41;7.50;99.90
30678;DHT22;17437;47.188;8.896;2023-04-03T09:01:18;7.60;99.90
30678;DHT22;17437;47.188;8.896;2023-04-03T09:03:51;7.50;99.90
30678;DHT22;17437;47.188;8.896;2023-04-03T09:06:25;7.20;99.90
30678;DHT22;17437;47.188;8.896;2023-04-03T09:09:06;7.30;99.90
30678;DHT22;17437;47.188;8.896;2023-04-03T09:11:43;7.40;99.90
30678;DHT22;17437;47.188;8.896;2023-04-03T09:14:19;7.60;99.90
30678;DHT22;17437;47.188;8.896;2023-04-03T09:16:54;7.80;99.90
30678;DHT22;17437;47.188;8.896;2023-04-03T09:19:33;7.50;99.90
30678;DHT22;17437;47.188;8.896;2023-04-03T09:22:11;7.60;99.90
30678;DHT22;17437;47.188;8.896;2023-04-03T09:24:44;7.70;99.90
30678;DHT22;17437;47.188;8.896;2023-04-03T09:27:17;7.70;99.90
30678;DHT22;17437;47.188;8.896;2023-04-03T09:29:51;7.70;99.90
30678;DHT22;17437;47.188;8.896;2023-04-03T09:32:30;7.40;99.90
30678;DHT22;17437;47.188;8.896;2023-04-03T09:35:04;7.20;99.90
30678;DHT22;17437;47.188;8.896;2023-04-03T09:37:42;6.90;99.90
30678;DHT22;17437;47.188;8.896;2023-04-03T09:40:31;6.90;99.90
30678;DHT22;17437;47.188;8.896;2023-04-03T09:43:24;7.00;99.90
30678;DHT22;17437;47.188;8.896;2023-04-03T09:48:31;7.40;99.90
30678;DHT22;17437;47.188;8.896;2023-04-03T09:51:04;7.40;99.90
30678;DHT22;17437;47.188;8.896;2023-04-03T09:53:38;7.30;99.90
30678;DHT22;17437;47.188;8.896;2023-04-03T09:56:22;7.30;99.90
30678;DHT22;17437;47.188;8.896;2023-04-03T09:59:12;7.30;99.90
30678;DHT22;17437;47.188;8.896;2023-04-03T10:01:44;7.30;99.90
30678;DHT22;17437;47.188;8.896;2023-04-03T10:04:18;7.20;99.90
30678;DHT22;17437;47.188;8.896;2023-04-03T10:06:52;7.20;99.90
30678;DHT22;17437;47.188;8.896;2023-04-03T10:09:29;7.20;99.90
30678;DHT22;17437;47.188;8.896;2023-04-03T10:12:03;7.20;99.90
30678;DHT22;17437;47.188;8.896;2023-04-03T10:14:38;7.40;99.90
30678;DHT22;17437;47.188;8.896;2023-04-03T10:17:16;7.30;99.90
30678;DHT22;17437;47.188;8.896;2023-04-03T10:19:51;7.30;99.90
30678;DHT22;17437;47.188;8.896;2023-04-03T10:22:27;7.30;99.90
30678;DHT22;17437;47.188;8.896;2023-04-03T10:25:03;7.40;99.90
30678;DHT22;17437;47.188;8.896;2023-04-03T10:27:42;7.30;99.90
30678;DHT22;17437;47.188;8.896;2023-04-03T10:30:33;7.20;99.90
30678;DHT22;17437;47.188;8.896;2023-04-03T10:33:26;7.10;99.90
30678;DHT22;17437;47.188;8.896;2023-04-03T10:36:07;7.00;99.90
30678;DHT22;17437;47.188;8.896;2023-04-03T10:38:48;7.00;99.90
30678;DHT22;17437;47.188;8.896;2023-04-03T10:41:25;7.00;99.90
30678;DHT22;17437;47.188;8.896;2023-04-03T10:44:02;7.10;99.90
30678;DHT22;17437;47.188;8.896;2023-04-03T10:46:35;7.20;99.90
30678;DHT22;17437;47.188;8.896;2023-04-03T10:49:16;7.20;99.90
30678;DHT22;17437;47.188;8.896;2023-04-03T10:51:51;7.30;99.90
30678;DHT22;17437;47.188;8.896;2023-04-03T10:54:24;7.40;99.90
30678;DHT22;17437;47.188;8.896;2023-04-03T10:57:00;7.30;99.90
30678;DHT22;17437;47.188;8.896;2023-04-03T10:59:35;7.30;99.90
30678;DHT22;17437;47.188;8.896;2023-04-03T11:02:11;7.30;99.90
30678;DHT22;17437;47.188;8.896;2023-04-03T11:04:47;7.30;99.90
30678;DHT22;17437;47.188;8.896;2023-04-03T11:07:26;7.20;99.90
30678;DHT22;17437;47.188;8.896;2023-04-03T11:10:00;7.30;99.90
30678;DHT22;17437;47.188;8.896;2023-04-03T11:12:38;7.30;99.90
30678;DHT22;17437;47.188;8.896;2023-04-03T11:15:13;7.30;99.90
30678;DHT22;17437;47.188;8.896;2023-04-03T11:17:50;7.40;99.90
30678;DHT22;17437;47.188;8.896;2023-04-03T11:20:24;7.40;99.90
30678;DHT22;17437;47.188;8.896;2023-04-03T11:23:01;7.40;99.90
30678;DHT22;17437;47.188;8.896;2023-04-03T11:25:35;7.50;99.90
30678;DHT22;17437;47.188;8.896;2023-04-03T11:28:13;7.40;99.90
30678;DHT22;17437;47.188;8.896;2023-04-03T11:30:47;7.40;99.90
30678;DHT22;17437;47.188;8.896;2023-04-03T11:33:40;7.40;99.90
30678;DHT22;17437;47.188;8.896;2023-04-03T11:36:19;7.40;99.90
30678;DHT22;17437;47.188;8.896;2023-04-03T11:38:55;7.30;99.90
30678;DHT22;17437;47.188;8.896;2023-04-03T11:41:29;7.40;99.90
30678;DHT22;17437;47.188;8.896;2023-04-03T11:44:04;7.40;99.90
30678;DHT22;17437;47.188;8.896;2023-04-03T11:46:53;7.40;99.90
30678;DHT22;17437;47.188;8.896;2023-04-03T11:49:52;7.50;99.90
30678;DHT22;17437;47.188;8.896;2023-04-03T11:53:00;7.50;99.90
30678;DHT22;17437;47.188;8.896;2023-04-03T11:55:59;7.60;99.90
30678;DHT22;17437;47.188;8.896;2023-04-03T11:58:34;7.50;99.90
30678;DHT22;17437;47.188;8.896;2023-04-03T12:01:10;7.60;99.90
30678;DHT22;17437;47.188;8.896;2023-04-03T12:04:08;7.60;99.90
30678;DHT22;17437;47.188;8.896;2023-04-03T12:10:19;7.50;99.90
30678;DHT22;17437;47.188;8.896;2023-04-03T12:13:00;7.40;99.90
30678;DHT22;17437;47.188;8.896;2023-04-03T12:21:15;7.70;99.90
30678;DHT22;17437;47.188;8.896;2023-04-03T12:24:04;7.60;99.90
30678;DHT22;17437;47.188;8.896;2023-04-03T12:26:40;7.70;99.90
30678;DHT22;17437;47.188;8.896;2023-04-03T12:29:18;7.80;99.90
30678;DHT22;17437;47.188;8.896;2023-04-03T12:32:06;7.80;99.90
30678;DHT22;17437;47.188;8.896;2023-04-03T12:34:46;7.70;99.90
30678;DHT22;17437;47.188;8.896;2023-04-03T12:37:26;7.80;99.90
30678;DHT22;17437;47.188;8.896;2023-04-03T12:40:06;8.00;99.90
30678;DHT22;17437;47.188;8.896;2023-04-03T12:45:49;8.30;99.90
30678;DHT22;17437;47.188;8.896;2023-04-03T12:48:25;8.40;99.90
30678;DHT22;17437;47.188;8.896;2023-04-03T12:50:58;8.30;99.90
30678;DHT22;17437;47.188;8.896;2023-04-03T12:53:32;8.20;99.90
30678;DHT22;17437;47.188;8.896;2023-04-03T12:56:21;8.10;99.90
30678;DHT22;17437;47.188;8.896;2023-04-03T12:58:55;8.10;99.90
30678;DHT22;17437;47.188;8.896;2023-04-03T13:01:30;8.10;99.90
30678;DHT22;17437;47.188;8.896;2023-04-03T13:04:01;8.00;99.90
30678;DHT22;17437;47.188;8.896;2023-04-03T13:06:37;8.10;99.90
30678;DHT22;17437;47.188;8.896;2023-04-03T13:09:19;8.20;99.90
30678;DHT22;17437;47.188;8.896;2023-04-03T13:11:56;8.10;99.90
30678;DHT22;17437;47.188;8.896;2023-04-03T13:14:28;8.10;99.90
30678;DHT22;17437;47.188;8.896;2023-04-03T13:17:04;8.10;99.90
30678;DHT22;17437;47.188;8.896;2023-04-03T13:19:37;8.10;99.90
30678;DHT22;17437;47.188;8.896;2023-04-03T13:22:15;8.00;99.90
30678;DHT22;17437;47.188;8.896;2023-04-03T13:24:46;8.00;99.90
30678;DHT22;17437;47.188;8.896;2023-04-03T13:27:19;8.20;99.90
30678;DHT22;17437;47.188;8.896;2023-04-03T13:29:52;8.10;99.90
30678;DHT22;17437;47.188;8.896;2023-04-03T13:32:26;8.10;99.90
30678;DHT22;17437;47.188;8.896;2023-04-03T13:34:58;8.20;99.90
30678;DHT22;17437;47.188;8.896;2023-04-03T13:37:33;8.10;99.90
30678;DHT22;17437;47.188;8.896;2023-04-03T13:40:12;8.00;99.90
30678;DHT22;17437;47.188;8.896;2023-04-03T13:42:43;8.00;99.90
30678;DHT22;17437;47.188;8.896;2023-04-03T13:45:20;8.00;99.90
30678;DHT22;17437;47.188;8.896;2023-04-03T13:48:07;7.90;99.90
30678;DHT22;17437;47.188;8.896;2023-04-03T13:50:57;7.90;99.90
30678;DHT22;17437;47.188;8.896;2023-04-03T13:53:30;7.90;99.90
30678;DHT22;17437;47.188;8.896;2023-04-03T13:56:13;7.90;99.90
30678;DHT22;17437;47.188;8.896;2023-04-03T13:58:52;7.90;99.90
30678;DHT22;17437;47.188;8.896;2023-04-03T14:01:32;8.00;99.90
30678;DHT22;17437;47.188;8.896;2023-04-03T14:04:01;8.20;99.90
30678;DHT22;17437;47.188;8.896;2023-04-03T14:06:33;8.20;99.90
30678;DHT22;17437;47.188;8.896;2023-04-03T14:09:05;8.20;99.90
30678;DHT22;17437;47.188;8.896;2023-04-03T14:11:36;8.20;99.90
30678;DHT22;17437;47.188;8.896;2023-04-03T14:14:13;8.00;99.90
30678;DHT22;17437;47.188;8.896;2023-04-03T14:16:48;7.90;99.90
30678;DHT22;17437;47.188;8.896;2023-04-03T14:19:23;7.90;99.90
30678;DHT22;17437;47.188;8.896;2023-04-03T14:21:56;8.10;99.90
30678;DHT22;17437;47.188;8.896;2023-04-03T14:24:28;8.10;99.90
30678;DHT22;17437;47.188;8.896;2023-04-03T14:26:59;8.30;99.90
30678;DHT22;17437;47.188;8.896;2023-04-03T14:29:31;8.30;99.90
30678;DHT22;17437;47.188;8.896;2023-04-03T14:32:03;8.40;99.90
30678;DHT22;17437;47.188;8.896;2023-04-03T14:34:37;8.40;99.90
30678;DHT22;17437;47.188;8.896;2023-04-03T14:37:12;8.40;99.90
30678;DHT22;17437;47.188;8.896;2023-04-03T14:39:46;8.40;99.90
30678;DHT22;17437;47.188;8.896;2023-04-03T14:42:21;8.50;99.90
30678;DHT22;17437;47.188;8.896;2023-04-03T14:44:53;8.50;99.90
30678;DHT22;17437;47.188;8.896;2023-04-03T14:47:27;8.40;99.90
30678;DHT22;17437;47.188;8.896;2023-04-03T14:50:02;8.70;99.90
30678;DHT22;17437;47.188;8.896;2023-04-03T14:52:36;8.70;99.90
30678;DHT22;17437;47.188;8.896;2023-04-03T14:55:11;8.70;99.90
30678;DHT22;17437;47.188;8.896;2023-04-03T14:57:43;8.30;99.90
30678;DHT22;17437;47.188;8.896;2023-04-03T15:00:17;8.00;99.90
30678;DHT22;17437;47.188;8.896;2023-04-03T15:02:50;8.00;99.90
30678;DHT22;17437;47.188;8.896;2023-04-03T15:05:23;7.90;99.90
30678;DHT22;17437;47.188;8.896;2023-04-03T15:07:57;7.80;99.90
30678;DHT22;17437;47.188;8.896;2023-04-03T15:10:31;7.40;99.90
30678;DHT22;17437;47.188;8.896;2023-04-03T15:13:03;7.40;99.90
30678;DHT22;17437;47.188;8.896;2023-04-03T15:15:36;7.40;99.90
30678;DHT22;17437;47.188;8.896;2023-04-03T15:18:15;7.40;99.90
30678;DHT22;17437;47.188;8.896;2023-04-03T15:20:47;7.20;99.90
30678;DHT22;17437;47.188;8.896;2023-04-03T15:23:19;7.30;99.90
30678;DHT22;17437;47.188;8.896;2023-04-03T15:25:53;7.30;99.90
30678;DHT22;17437;47.188;8.896;2023-04-03T15:28:29;7.30;99.90
30678;DHT22;17437;47.188;8.896;2023-04-03T15:31:10;7.20;99.90
30678;DHT22;17437;47.188;8.896;2023-04-03T15:33:42;7.20;99.90
30678;DHT22;17437;47.188;8.896;2023-04-03T15:36:14;7.10;99.90
30678;DHT22;17437;47.188;8.896;2023-04-03T15:38:47;7.10;99.90
30678;DHT22;17437;47.188;8.896;2023-04-03T15:44:03;7.20;99.90
30678;DHT22;17437;47.188;8.896;2023-04-03T15:46:34;7.30;99.90
30678;DHT22;17437;47.188;8.896;2023-04-03T15:49:06;7.40;99.90
30678;DHT22;17437;47.188;8.896;2023-04-03T15:51:38;7.50;99.90
30678;DHT22;17437;47.188;8.896;2023-04-03T15:54:10;7.50;99.90
30678;DHT22;17437;47.188;8.896;2023-04-03T15:56:42;7.40;99.90
30678;DHT22;17437;47.188;8.896;2023-04-03T15:59:13;7.40;99.90
30678;DHT22;17437;47.188;8.896;2023-04-03T16:01:45;7.40;99.90
30678;DHT22;17437;47.188;8.896;2023-04-03T16:04:19;7.40;99.90
30678;DHT22;17437;47.188;8.896;2023-04-03T16:06:53;7.40;99.90
30678;DHT22;17437;47.188;8.896;2023-04-03T16:09:25;7.40;99.90
30678;DHT22;17437;47.188;8.896;2023-04-03T16:11:57;7.60;99.90
30678;DHT22;17437;47.188;8.896;2023-04-03T16:14:28;7.60;99.90
30678;DHT22;17437;47.188;8.896;2023-04-03T16:17:01;7.50;99.90
30678;DHT22;17437;47.188;8.896;2023-04-03T16:19:32;7.50;99.90
30678;DHT22;17437;47.188;8.896;2023-04-03T16:22:04;7.40;99.90
30678;DHT22;17437;47.188;8.896;2023-04-03T16:24:36;7.30;99.90
30678;DHT22;17437;47.188;8.896;2023-04-03T16:27:08;7.10;99.90
30678;DHT22;17437;47.188;8.896;2023-04-03T16:29:40;7.10;99.90
30678;DHT22;17437;47.188;8.896;2023-04-03T16:32:13;7.00;99.90
30678;DHT22;17437;47.188;8.896;2023-04-03T16:34:45;7.00;99.90
30678;DHT22;17437;47.188;8.896;2023-04-03T16:37:17;7.00;99.90
30678;DHT22;17437;47.188;8.896;2023-04-03T16:39:49;6.90;99.90
30678;DHT22;17437;47.188;8.896;2023-04-03T16:42:20;6.80;99.90
30678;DHT22;17437;47.188;8.896;2023-04-03T16:44:52;6.70;99.90
30678;DHT22;17437;47.188;8.896;2023-04-03T16:47:23;6.70;99.90
30678;DHT22;17437;47.188;8.896;2023-04-03T16:49:55;6.70;99.90